Terminal Aerodrome Forecast
Issued by NWS Brownsville, TX

Home | Current Version | Previous Version | Text Only | Print | Product List | Glossary On
Versions: 1 2 3 4 5 6 7 8 9 10 11 12 13
859
FTUS44 KBRO 242340
TAFHRL
TAF
KHRL 242340Z 2500/2524 13015KT P6SM FEW050
     FM250200 14009KT P6SM SKC
     FM250600 14005KT P6SM FEW025 SCT300
     FM251400 14012KT P6SM SCT035 SCT300
     FM251800 16014G20KT P6SM SCT035 SCT300=

USA.gov is the U.S. government's official web portal to all federal, state and local government web resources and services.